sensor_id;sensor_type;location;lat;lon;timestamp;P1;durP1;ratioP1;P2;durP2;ratioP2
75246;SDS011;63844;50.042;19.224;2024-03-22T00:00:11;102.40;;;48.10;;
75246;SDS011;63844;50.042;19.224;2024-03-22T00:02:08;98.40;;;44.90;;
75246;SDS011;63844;50.042;19.224;2024-03-22T00:03:47;96.70;;;42.90;;
75246;SDS011;63844;50.042;19.224;2024-03-22T00:05:23;92.80;;;40.30;;
75246;SDS011;63844;50.042;19.224;2024-03-22T00:07:00;84.10;;;37.90;;
75246;SDS011;63844;50.042;19.224;2024-03-22T00:08:36;84.40;;;38.40;;
75246;SDS011;63844;50.042;19.224;2024-03-22T00:10:12;82.30;;;37.70;;
75246;SDS011;63844;50.042;19.224;2024-03-22T00:11:49;75.10;;;35.10;;
75246;SDS011;63844;50.042;19.224;2024-03-22T00:13:26;85.70;;;35.20;;
75246;SDS011;63844;50.042;19.224;2024-03-22T00:15:02;85.00;;;37.70;;
75246;SDS011;63844;50.042;19.224;2024-03-22T00:16:39;68.00;;;32.20;;
75246;SDS011;63844;50.042;19.224;2024-03-22T00:18:15;76.40;;;35.00;;
75246;SDS011;63844;50.042;19.224;2024-03-22T00:19:52;65.90;;;30.50;;
75246;SDS011;63844;50.042;19.224;2024-03-22T00:21:28;62.80;;;31.30;;
75246;SDS011;63844;50.042;19.224;2024-03-22T00:23:05;71.30;;;32.20;;
75246;SDS011;63844;50.042;19.224;2024-03-22T00:24:42;68.30;;;32.00;;
75246;SDS011;63844;50.042;19.224;2024-03-22T00:26:18;65.00;;;29.60;;
75246;SDS011;63844;50.042;19.224;2024-03-22T00:27:55;65.90;;;30.40;;
75246;SDS011;63844;50.042;19.224;2024-03-22T00:29:31;58.50;;;28.60;;
75246;SDS011;63844;50.042;19.224;2024-03-22T00:31:10;62.70;;;28.30;;
75246;SDS011;63844;50.042;19.224;2024-03-22T00:32:47;58.00;;;27.40;;
75246;SDS011;63844;50.042;19.224;2024-03-22T00:34:23;65.90;;;28.90;;
75246;SDS011;63844;50.042;19.224;2024-03-22T00:36:00;58.80;;;27.30;;
75246;SDS011;63844;50.042;19.224;2024-03-22T00:37:36;55.40;;;25.80;;
75246;SDS011;63844;50.042;19.224;2024-03-22T00:39:12;59.30;;;28.20;;
75246;SDS011;63844;50.042;19.224;2024-03-22T00:40:49;60.60;;;28.80;;
75246;SDS011;63844;50.042;19.224;2024-03-22T00:42:25;52.60;;;26.00;;
75246;SDS011;63844;50.042;19.224;2024-03-22T00:44:01;54.90;;;27.20;;
75246;SDS011;63844;50.042;19.224;2024-03-22T00:45:38;54.80;;;26.30;;
75246;SDS011;63844;50.042;19.224;2024-03-22T00:47:14;52.00;;;24.60;;
75246;SDS011;63844;50.042;19.224;2024-03-22T00:48:50;54.70;;;26.10;;
75246;SDS011;63844;50.042;19.224;2024-03-22T00:50:27;49.40;;;24.40;;
75246;SDS011;63844;50.042;19.224;2024-03-22T00:52:03;47.90;;;23.10;;
75246;SDS011;63844;50.042;19.224;2024-03-22T00:53:40;49.30;;;23.40;;
75246;SDS011;63844;50.042;19.224;2024-03-22T00:55:16;48.10;;;23.80;;
75246;SDS011;63844;50.042;19.224;2024-03-22T00:56:52;48.10;;;24.30;;
75246;SDS011;63844;50.042;19.224;2024-03-22T00:58:29;44.40;;;22.10;;
75246;SDS011;63844;50.042;19.224;2024-03-22T01:00:05;43.00;;;21.90;;
75246;SDS011;63844;50.042;19.224;2024-03-22T01:01:42;49.40;;;21.20;;
75246;SDS011;63844;50.042;19.224;2024-03-22T01:03:19;47.30;;;21.80;;
75246;SDS011;63844;50.042;19.224;2024-03-22T01:04:55;42.60;;;22.40;;
75246;SDS011;63844;50.042;19.224;2024-03-22T01:06:31;43.90;;;22.40;;
75246;SDS011;63844;50.042;19.224;2024-03-22T01:08:08;42.30;;;21.00;;
75246;SDS011;63844;50.042;19.224;2024-03-22T01:09:44;41.60;;;21.00;;
75246;SDS011;63844;50.042;19.224;2024-03-22T01:11:21;43.00;;;20.70;;
75246;SDS011;63844;50.042;19.224;2024-03-22T01:12:57;41.80;;;21.20;;
75246;SDS011;63844;50.042;19.224;2024-03-22T01:14:33;41.50;;;20.50;;
75246;SDS011;63844;50.042;19.224;2024-03-22T01:16:10;39.10;;;18.80;;
75246;SDS011;63844;50.042;19.224;2024-03-22T01:17:46;39.50;;;20.50;;
75246;SDS011;63844;50.042;19.224;2024-03-22T01:19:22;37.80;;;20.30;;
75246;SDS011;63844;50.042;19.224;2024-03-22T01:20:59;42.70;;;20.40;;
75246;SDS011;63844;50.042;19.224;2024-03-22T01:22:35;37.10;;;19.90;;
75246;SDS011;63844;50.042;19.224;2024-03-22T01:24:13;47.20;;;21.80;;
75246;SDS011;63844;50.042;19.224;2024-03-22T01:25:49;40.90;;;20.20;;
75246;SDS011;63844;50.042;19.224;2024-03-22T01:27:26;38.90;;;20.60;;
75246;SDS011;63844;50.042;19.224;2024-03-22T01:29:02;36.70;;;19.10;;
75246;SDS011;63844;50.042;19.224;2024-03-22T01:30:38;36.10;;;19.20;;
75246;SDS011;63844;50.042;19.224;2024-03-22T01:32:15;37.60;;;19.10;;
75246;SDS011;63844;50.042;19.224;2024-03-22T01:33:51;36.30;;;17.70;;
75246;SDS011;63844;50.042;19.224;2024-03-22T01:35:27;35.10;;;18.20;;
75246;SDS011;63844;50.042;19.224;2024-03-22T01:37:04;33.60;;;17.50;;
75246;SDS011;63844;50.042;19.224;2024-03-22T01:38:40;33.40;;;17.90;;
75246;SDS011;63844;50.042;19.224;2024-03-22T01:40:17;37.10;;;18.60;;
75246;SDS011;63844;50.042;19.224;2024-03-22T01:41:54;37.30;;;18.50;;
75246;SDS011;63844;50.042;19.224;2024-03-22T01:43:30;39.60;;;19.20;;
75246;SDS011;63844;50.042;19.224;2024-03-22T01:45:07;37.60;;;17.80;;
75246;SDS011;63844;50.042;19.224;2024-03-22T01:46:44;37.00;;;19.00;;
75246;SDS011;63844;50.042;19.224;2024-03-22T01:48:24;32.20;;;17.40;;
75246;SDS011;63844;50.042;19.224;2024-03-22T01:50:00;34.40;;;17.80;;
75246;SDS011;63844;50.042;19.224;2024-03-22T01:51:37;40.00;;;19.80;;
75246;SDS011;63844;50.042;19.224;2024-03-22T01:53:13;36.80;;;20.30;;
75246;SDS011;63844;50.042;19.224;2024-03-22T01:54:50;34.50;;;18.70;;
75246;SDS011;63844;50.042;19.224;2024-03-22T01:56:27;36.10;;;19.00;;
75246;SDS011;63844;50.042;19.224;2024-03-22T01:58:03;40.80;;;18.40;;
75246;SDS011;63844;50.042;19.224;2024-03-22T01:59:40;39.50;;;18.40;;
75246;SDS011;63844;50.042;19.224;2024-03-22T02:01:17;39.00;;;19.70;;
75246;SDS011;63844;50.042;19.224;2024-03-22T02:02:53;37.40;;;17.70;;
75246;SDS011;63844;50.042;19.224;2024-03-22T02:04:30;36.20;;;18.60;;
75246;SDS011;63844;50.042;19.224;2024-03-22T02:06:06;38.60;;;18.40;;
75246;SDS011;63844;50.042;19.224;2024-03-22T02:07:43;36.70;;;18.40;;
75246;SDS011;63844;50.042;19.224;2024-03-22T02:09:19;37.80;;;18.70;;
75246;SDS011;63844;50.042;19.224;2024-03-22T02:10:57;40.50;;;18.60;;
75246;SDS011;63844;50.042;19.224;2024-03-22T02:12:33;35.60;;;17.80;;
75246;SDS011;63844;50.042;19.224;2024-03-22T02:14:10;35.70;;;17.80;;
75246;SDS011;63844;50.042;19.224;2024-03-22T02:15:46;35.10;;;17.80;;
75246;SDS011;63844;50.042;19.224;2024-03-22T02:17:23;35.20;;;17.10;;
75246;SDS011;63844;50.042;19.224;2024-03-22T02:18:59;37.30;;;19.30;;
75246;SDS011;63844;50.042;19.224;2024-03-22T02:20:35;35.40;;;17.30;;
75246;SDS011;63844;50.042;19.224;2024-03-22T02:22:11;36.00;;;18.50;;
75246;SDS011;63844;50.042;19.224;2024-03-22T02:23:48;36.70;;;17.40;;
75246;SDS011;63844;50.042;19.224;2024-03-22T02:25:24;33.50;;;16.70;;
75246;SDS011;63844;50.042;19.224;2024-03-22T02:27:00;35.20;;;17.60;;
75246;SDS011;63844;50.042;19.224;2024-03-22T02:28:37;34.10;;;18.30;;
75246;SDS011;63844;50.042;19.224;2024-03-22T02:30:13;34.10;;;19.30;;
75246;SDS011;63844;50.042;19.224;2024-03-22T02:31:49;31.70;;;17.70;;
75246;SDS011;63844;50.042;19.224;2024-03-22T02:33:26;38.40;;;17.50;;
75246;SDS011;63844;50.042;19.224;2024-03-22T02:35:03;32.40;;;17.60;;
75246;SDS011;63844;50.042;19.224;2024-03-22T02:36:39;37.20;;;19.50;;
75246;SDS011;63844;50.042;19.224;2024-03-22T02:38:16;38.20;;;18.80;;
75246;SDS011;63844;50.042;19.224;2024-03-22T02:39:53;39.40;;;21.50;;
75246;SDS011;63844;50.042;19.224;2024-03-22T02:41:29;38.00;;;20.70;;
75246;SDS011;63844;50.042;19.224;2024-03-22T02:43:06;33.50;;;18.50;;
75246;SDS011;63844;50.042;19.224;2024-03-22T02:44:42;36.50;;;18.60;;
75246;SDS011;63844;50.042;19.224;2024-03-22T02:46:19;33.60;;;18.80;;
75246;SDS011;63844;50.042;19.224;2024-03-22T02:47:55;33.00;;;18.60;;
75246;SDS011;63844;50.042;19.224;2024-03-22T02:49:31;32.60;;;16.80;;
75246;SDS011;63844;50.042;19.224;2024-03-22T02:51:08;34.50;;;18.60;;
75246;SDS011;63844;50.042;19.224;2024-03-22T02:52:44;32.60;;;17.50;;
75246;SDS011;63844;50.042;19.224;2024-03-22T02:54:21;30.20;;;16.60;;
75246;SDS011;63844;50.042;19.224;2024-03-22T02:55:59;34.30;;;17.20;;
75246;SDS011;63844;50.042;19.224;2024-03-22T02:57:36;33.00;;;17.90;;
75246;SDS011;63844;50.042;19.224;2024-03-22T02:59:13;33.80;;;15.90;;
75246;SDS011;63844;50.042;19.224;2024-03-22T03:00:49;30.20;;;16.10;;
75246;SDS011;63844;50.042;19.224;2024-03-22T03:02:25;27.90;;;14.80;;
75246;SDS011;63844;50.042;19.224;2024-03-22T03:04:02;26.90;;;15.50;;
75246;SDS011;63844;50.042;19.224;2024-03-22T03:05:38;28.90;;;15.00;;
75246;SDS011;63844;50.042;19.224;2024-03-22T03:07:14;29.00;;;15.30;;
75246;SDS011;63844;50.042;19.224;2024-03-22T03:08:51;29.00;;;14.60;;
75246;SDS011;63844;50.042;19.224;2024-03-22T03:10:27;25.00;;;15.50;;
75246;SDS011;63844;50.042;19.224;2024-03-22T03:12:04;28.30;;;15.20;;
75246;SDS011;63844;50.042;19.224;2024-03-22T03:13:41;26.20;;;15.00;;
75246;SDS011;63844;50.042;19.224;2024-03-22T03:15:17;27.50;;;14.80;;
75246;SDS011;63844;50.042;19.224;2024-03-22T03:16:54;26.70;;;15.20;;
75246;SDS011;63844;50.042;19.224;2024-03-22T03:18:30;28.50;;;15.50;;
75246;SDS011;63844;50.042;19.224;2024-03-22T03:20:07;29.50;;;16.10;;
75246;SDS011;63844;50.042;19.224;2024-03-22T03:21:45;27.60;;;16.30;;
75246;SDS011;63844;50.042;19.224;2024-03-22T03:23:22;29.20;;;16.30;;
75246;SDS011;63844;50.042;19.224;2024-03-22T03:24:58;26.90;;;14.30;;
75246;SDS011;63844;50.042;19.224;2024-03-22T03:26:35;26.90;;;15.50;;
75246;SDS011;63844;50.042;19.224;2024-03-22T03:28:11;31.20;;;17.20;;
75246;SDS011;63844;50.042;19.224;2024-03-22T03:29:49;30.30;;;17.20;;
75246;SDS011;63844;50.042;19.224;2024-03-22T03:31:25;31.00;;;15.90;;
75246;SDS011;63844;50.042;19.224;2024-03-22T03:33:01;28.10;;;15.70;;
75246;SDS011;63844;50.042;19.224;2024-03-22T03:34:38;25.50;;;14.30;;
75246;SDS011;63844;50.042;19.224;2024-03-22T03:36:15;26.10;;;15.40;;
75246;SDS011;63844;50.042;19.224;2024-03-22T03:37:51;28.30;;;16.50;;
75246;SDS011;63844;50.042;19.224;2024-03-22T03:39:30;24.30;;;14.40;;
75246;SDS011;63844;50.042;19.224;2024-03-22T03:41:06;27.30;;;15.40;;
75246;SDS011;63844;50.042;19.224;2024-03-22T03:42:42;28.20;;;15.40;;
75246;SDS011;63844;50.042;19.224;2024-03-22T03:44:19;27.10;;;15.20;;
75246;SDS011;63844;50.042;19.224;2024-03-22T03:45:55;23.80;;;14.00;;
75246;SDS011;63844;50.042;19.224;2024-03-22T03:47:31;28.70;;;15.10;;
75246;SDS011;63844;50.042;19.224;2024-03-22T03:49:09;26.40;;;14.20;;
75246;SDS011;63844;50.042;19.224;2024-03-22T03:50:53;24.30;;;14.30;;
75246;SDS011;63844;50.042;19.224;2024-03-22T03:52:30;27.80;;;14.50;;
75246;SDS011;63844;50.042;19.224;2024-03-22T03:54:07;25.20;;;15.60;;
75246;SDS011;63844;50.042;19.224;2024-03-22T03:55:43;31.20;;;15.10;;
75246;SDS011;63844;50.042;19.224;2024-03-22T03:57:20;27.80;;;14.90;;
75246;SDS011;63844;50.042;19.224;2024-03-22T03:58:56;26.10;;;14.80;;
75246;SDS011;63844;50.042;19.224;2024-03-22T04:00:32;29.30;;;15.40;;
75246;SDS011;63844;50.042;19.224;2024-03-22T04:02:09;26.90;;;14.80;;
75246;SDS011;63844;50.042;19.224;2024-03-22T04:03:45;24.80;;;14.60;;
75246;SDS011;63844;50.042;19.224;2024-03-22T04:05:21;27.60;;;14.20;;
75246;SDS011;63844;50.042;19.224;2024-03-22T04:06:58;26.50;;;14.40;;
75246;SDS011;63844;50.042;19.224;2024-03-22T04:08:34;27.70;;;15.50;;
75246;SDS011;63844;50.042;19.224;2024-03-22T04:10:11;26.70;;;14.50;;
75246;SDS011;63844;50.042;19.224;2024-03-22T04:11:47;24.90;;;14.30;;
75246;SDS011;63844;50.042;19.224;2024-03-22T04:13:24;27.70;;;15.30;;
75246;SDS011;63844;50.042;19.224;2024-03-22T04:15:01;21.90;;;14.00;;
75246;SDS011;63844;50.042;19.224;2024-03-22T04:16:38;26.00;;;14.70;;
75246;SDS011;63844;50.042;19.224;2024-03-22T04:18:14;23.50;;;12.90;;
75246;SDS011;63844;50.042;19.224;2024-03-22T04:19:50;26.60;;;14.60;;
75246;SDS011;63844;50.042;19.224;2024-03-22T04:21:28;24.60;;;13.60;;
75246;SDS011;63844;50.042;19.224;2024-03-22T04:23:04;25.30;;;14.30;;
75246;SDS011;63844;50.042;19.224;2024-03-22T04:24:40;26.90;;;14.60;;
75246;SDS011;63844;50.042;19.224;2024-03-22T04:26:17;25.30;;;13.70;;
75246;SDS011;63844;50.042;19.224;2024-03-22T04:27:53;27.10;;;14.30;;
75246;SDS011;63844;50.042;19.224;2024-03-22T04:29:30;27.50;;;14.00;;
75246;SDS011;63844;50.042;19.224;2024-03-22T04:31:07;34.40;;;14.90;;
75246;SDS011;63844;50.042;19.224;2024-03-22T04:32:47;29.00;;;14.80;;
75246;SDS011;63844;50.042;19.224;2024-03-22T04:34:24;28.20;;;13.80;;
75246;SDS011;63844;50.042;19.224;2024-03-22T04:36:00;29.20;;;14.30;;
75246;SDS011;63844;50.042;19.224;2024-03-22T04:37:37;29.60;;;13.30;;
75246;SDS011;63844;50.042;19.224;2024-03-22T04:39:14;27.40;;;14.00;;
75246;SDS011;63844;50.042;19.224;2024-03-22T04:40:52;24.90;;;13.50;;
75246;SDS011;63844;50.042;19.224;2024-03-22T04:42:30;25.30;;;13.50;;
75246;SDS011;63844;50.042;19.224;2024-03-22T04:44:06;26.80;;;13.10;;
75246;SDS011;63844;50.042;19.224;2024-03-22T04:45:43;23.00;;;12.90;;
75246;SDS011;63844;50.042;19.224;2024-03-22T04:47:20;22.80;;;12.80;;
75246;SDS011;63844;50.042;19.224;2024-03-22T04:48:56;23.60;;;13.50;;
75246;SDS011;63844;50.042;19.224;2024-03-22T04:50:33;23.00;;;12.10;;
75246;SDS011;63844;50.042;19.224;2024-03-22T04:52:09;23.60;;;12.60;;
75246;SDS011;63844;50.042;19.224;2024-03-22T04:53:46;25.60;;;12.80;;
75246;SDS011;63844;50.042;19.224;2024-03-22T04:55:22;22.50;;;13.00;;
75246;SDS011;63844;50.042;19.224;2024-03-22T04:56:58;20.80;;;12.30;;
75246;SDS011;63844;50.042;19.224;2024-03-22T04:58:35;24.10;;;12.90;;
75246;SDS011;63844;50.042;19.224;2024-03-22T05:00:12;20.10;;;11.80;;
75246;SDS011;63844;50.042;19.224;2024-03-22T05:01:49;21.90;;;12.10;;
75246;SDS011;63844;50.042;19.224;2024-03-22T05:03:25;22.30;;;11.60;;
75246;SDS011;63844;50.042;19.224;2024-03-22T05:05:01;24.50;;;12.40;;
75246;SDS011;63844;50.042;19.224;2024-03-22T05:06:38;21.30;;;12.60;;
75246;SDS011;63844;50.042;19.224;2024-03-22T05:08:14;24.80;;;13.10;;
75246;SDS011;63844;50.042;19.224;2024-03-22T05:09:50;22.80;;;14.00;;
75246;SDS011;63844;50.042;19.224;2024-03-22T05:11:27;22.30;;;12.40;;
75246;SDS011;63844;50.042;19.224;2024-03-22T05:13:03;23.00;;;13.50;;
75246;SDS011;63844;50.042;19.224;2024-03-22T05:14:40;19.70;;;13.00;;
75246;SDS011;63844;50.042;19.224;2024-03-22T05:16:16;23.30;;;14.70;;
75246;SDS011;63844;50.042;19.224;2024-03-22T05:17:53;24.70;;;13.40;;
75246;SDS011;63844;50.042;19.224;2024-03-22T05:19:30;25.10;;;13.00;;
75246;SDS011;63844;50.042;19.224;2024-03-22T05:21:07;24.10;;;14.10;;
75246;SDS011;63844;50.042;19.224;2024-03-22T05:22:43;26.00;;;13.10;;
75246;SDS011;63844;50.042;19.224;2024-03-22T05:24:20;24.30;;;13.50;;
75246;SDS011;63844;50.042;19.224;2024-03-22T05:25:56;25.30;;;13.20;;
75246;SDS011;63844;50.042;19.224;2024-03-22T05:27:33;23.70;;;13.60;;
75246;SDS011;63844;50.042;19.224;2024-03-22T05:29:10;25.80;;;13.70;;
75246;SDS011;63844;50.042;19.224;2024-03-22T05:30:47;26.40;;;13.90;;
75246;SDS011;63844;50.042;19.224;2024-03-22T05:32:24;28.20;;;13.80;;
75246;SDS011;63844;50.042;19.224;2024-03-22T05:34:01;24.80;;;13.40;;
75246;SDS011;63844;50.042;19.224;2024-03-22T05:35:37;24.80;;;14.40;;
75246;SDS011;63844;50.042;19.224;2024-03-22T05:37:14;29.30;;;14.50;;
75246;SDS011;63844;50.042;19.224;2024-03-22T05:38:50;27.00;;;14.60;;
75246;SDS011;63844;50.042;19.224;2024-03-22T05:40:26;26.50;;;14.80;;
75246;SDS011;63844;50.042;19.224;2024-03-22T05:42:03;26.90;;;14.90;;
75246;SDS011;63844;50.042;19.224;2024-03-22T05:43:39;28.30;;;14.80;;
75246;SDS011;63844;50.042;19.224;2024-03-22T05:45:16;26.60;;;13.80;;
75246;SDS011;63844;50.042;19.224;2024-03-22T05:46:52;26.10;;;14.30;;
75246;SDS011;63844;50.042;19.224;2024-03-22T05:48:28;28.70;;;15.20;;
75246;SDS011;63844;50.042;19.224;2024-03-22T05:50:05;29.40;;;15.60;;
75246;SDS011;63844;50.042;19.224;2024-03-22T05:51:45;26.90;;;15.00;;
75246;SDS011;63844;50.042;19.224;2024-03-22T05:53:21;26.50;;;14.20;;
75246;SDS011;63844;50.042;19.224;2024-03-22T05:54:58;24.30;;;14.10;;
75246;SDS011;63844;50.042;19.224;2024-03-22T05:56:34;25.40;;;13.20;;
75246;SDS011;63844;50.042;19.224;2024-03-22T05:58:10;29.30;;;14.80;;
75246;SDS011;63844;50.042;19.224;2024-03-22T05:59:47;28.40;;;14.80;;
75246;SDS011;63844;50.042;19.224;2024-03-22T06:01:25;24.30;;;14.70;;
75246;SDS011;63844;50.042;19.224;2024-03-22T06:03:01;23.00;;;13.10;;
75246;SDS011;63844;50.042;19.224;2024-03-22T06:04:38;23.50;;;12.80;;
75246;SDS011;63844;50.042;19.224;2024-03-22T06:06:15;22.30;;;12.80;;
75246;SDS011;63844;50.042;19.224;2024-03-22T06:07:52;27.70;;;13.80;;
75246;SDS011;63844;50.042;19.224;2024-03-22T06:09:28;23.20;;;12.80;;
75246;SDS011;63844;50.042;19.224;2024-03-22T06:11:21;22.60;;;12.60;;
75246;SDS011;63844;50.042;19.224;2024-03-22T06:12:58;23.40;;;12.80;;
75246;SDS011;63844;50.042;19.224;2024-03-22T06:14:34;23.60;;;12.60;;
75246;SDS011;63844;50.042;19.224;2024-03-22T06:16:11;22.60;;;12.00;;
75246;SDS011;63844;50.042;19.224;2024-03-22T06:17:47;20.80;;;11.90;;
75246;SDS011;63844;50.042;19.224;2024-03-22T06:19:24;21.00;;;11.00;;
75246;SDS011;63844;50.042;19.224;2024-03-22T06:21:00;22.20;;;11.70;;
75246;SDS011;63844;50.042;19.224;2024-03-22T06:22:37;21.80;;;11.10;;
75246;SDS011;63844;50.042;19.224;2024-03-22T06:24:13;20.70;;;11.60;;
75246;SDS011;63844;50.042;19.224;2024-03-22T06:25:52;19.80;;;10.60;;
75246;SDS011;63844;50.042;19.224;2024-03-22T06:27:29;18.10;;;9.70;;
75246;SDS011;63844;50.042;19.224;2024-03-22T06:29:06;21.80;;;10.30;;
75246;SDS011;63844;50.042;19.224;2024-03-22T06:30:42;19.30;;;9.60;;
75246;SDS011;63844;50.042;19.224;2024-03-22T06:32:18;19.10;;;10.20;;
75246;SDS011;63844;50.042;19.224;2024-03-22T06:33:55;19.30;;;10.40;;
75246;SDS011;63844;50.042;19.224;2024-03-22T06:35:37;20.70;;;11.90;;
75246;SDS011;63844;50.042;19.224;2024-03-22T06:37:14;20.10;;;11.10;;
75246;SDS011;63844;50.042;19.224;2024-03-22T06:38:50;21.20;;;11.80;;
75246;SDS011;63844;50.042;19.224;2024-03-22T06:40:27;18.20;;;10.20;;
75246;SDS011;63844;50.042;19.224;2024-03-22T06:42:03;19.00;;;10.80;;
75246;SDS011;63844;50.042;19.224;2024-03-22T06:43:40;17.40;;;8.80;;
75246;SDS011;63844;50.042;19.224;2024-03-22T06:45:17;19.00;;;10.40;;
75246;SDS011;63844;50.042;19.224;2024-03-22T06:46:53;21.80;;;11.40;;
75246;SDS011;63844;50.042;19.224;2024-03-22T06:48:30;19.80;;;10.40;;
75246;SDS011;63844;50.042;19.224;2024-03-22T06:50:06;18.50;;;10.40;;
75246;SDS011;63844;50.042;19.224;2024-03-22T06:51:43;18.30;;;9.70;;
75246;SDS011;63844;50.042;19.224;2024-03-22T06:53:19;14.60;;;7.80;;
75246;SDS011;63844;50.042;19.224;2024-03-22T06:54:56;19.70;;;9.00;;
75246;SDS011;63844;50.042;19.224;2024-03-22T06:56:32;16.60;;;8.90;;
75246;SDS011;63844;50.042;19.224;2024-03-22T06:58:08;19.20;;;8.30;;
75246;SDS011;63844;50.042;19.224;2024-03-22T06:59:45;13.40;;;7.80;;
75246;SDS011;63844;50.042;19.224;2024-03-22T07:01:21;14.00;;;7.70;;
75246;SDS011;63844;50.042;19.224;2024-03-22T07:02:57;15.90;;;7.20;;
75246;SDS011;63844;50.042;19.224;2024-03-22T07:04:36;14.80;;;8.00;;
75246;SDS011;63844;50.042;19.224;2024-03-22T07:06:13;14.40;;;6.80;;
75246;SDS011;63844;50.042;19.224;2024-03-22T07:07:50;13.00;;;6.50;;
75246;SDS011;63844;50.042;19.224;2024-03-22T07:09:29;15.20;;;6.60;;
75246;SDS011;63844;50.042;19.224;2024-03-22T07:11:08;12.40;;;6.60;;
75246;SDS011;63844;50.042;19.224;2024-03-22T07:12:44;12.70;;;6.50;;
75246;SDS011;63844;50.042;19.224;2024-03-22T07:14:21;12.70;;;6.80;;
75246;SDS011;63844;50.042;19.224;2024-03-22T07:16:00;13.30;;;7.00;;
75246;SDS011;63844;50.042;19.224;2024-03-22T07:17:37;13.50;;;7.00;;
75246;SDS011;63844;50.042;19.224;2024-03-22T07:19:14;14.10;;;6.70;;
75246;SDS011;63844;50.042;19.224;2024-03-22T07:20:50;14.30;;;6.80;;
75246;SDS011;63844;50.042;19.224;2024-03-22T07:22:27;12.50;;;6.40;;
75246;SDS011;63844;50.042;19.224;2024-03-22T07:24:03;11.60;;;6.60;;
75246;SDS011;63844;50.042;19.224;2024-03-22T07:25:39;11.30;;;6.00;;
75246;SDS011;63844;50.042;19.224;2024-03-22T07:27:18;12.10;;;6.30;;
75246;SDS011;63844;50.042;19.224;2024-03-22T07:28:55;11.90;;;6.00;;
75246;SDS011;63844;50.042;19.224;2024-03-22T07:30:31;12.40;;;6.10;;
75246;SDS011;63844;50.042;19.224;2024-03-22T07:32:08;12.00;;;5.40;;
75246;SDS011;63844;50.042;19.224;2024-03-22T07:33:44;11.20;;;5.50;;
75246;SDS011;63844;50.042;19.224;2024-03-22T07:35:20;10.40;;;4.80;;
75246;SDS011;63844;50.042;19.224;2024-03-22T07:36:57;9.50;;;5.00;;
75246;SDS011;63844;50.042;19.224;2024-03-22T07:38:34;10.30;;;5.10;;
75246;SDS011;63844;50.042;19.224;2024-03-22T07:40:10;11.30;;;5.60;;
75246;SDS011;63844;50.042;19.224;2024-03-22T07:41:47;11.00;;;5.10;;
75246;SDS011;63844;50.042;19.224;2024-03-22T07:43:23;10.20;;;5.20;;
75246;SDS011;63844;50.042;19.224;2024-03-22T07:45:00;11.80;;;6.40;;
75246;SDS011;63844;50.042;19.224;2024-03-22T07:46:36;11.30;;;5.20;;
75246;SDS011;63844;50.042;19.224;2024-03-22T07:48:12;10.50;;;5.60;;
75246;SDS011;63844;50.042;19.224;2024-03-22T07:49:50;11.50;;;5.70;;
75246;SDS011;63844;50.042;19.224;2024-03-22T07:51:27;11.20;;;5.50;;
75246;SDS011;63844;50.042;19.224;2024-03-22T07:53:03;10.30;;;5.00;;
75246;SDS011;63844;50.042;19.224;2024-03-22T07:54:39;12.70;;;5.50;;
75246;SDS011;63844;50.042;19.224;2024-03-22T07:56:16;11.30;;;5.80;;
75246;SDS011;63844;50.042;19.224;2024-03-22T07:57:52;10.90;;;5.90;;
75246;SDS011;63844;50.042;19.224;2024-03-22T07:59:29;12.90;;;6.30;;
75246;SDS011;63844;50.042;19.224;2024-03-22T08:01:05;11.70;;;5.10;;
75246;SDS011;63844;50.042;19.224;2024-03-22T08:02:42;10.50;;;5.40;;
75246;SDS011;63844;50.042;19.224;2024-03-22T08:04:18;12.50;;;5.10;;
75246;SDS011;63844;50.042;19.224;2024-03-22T08:05:54;9.50;;;5.40;;
75246;SDS011;63844;50.042;19.224;2024-03-22T08:07:31;9.20;;;5.20;;
75246;SDS011;63844;50.042;19.224;2024-03-22T08:09:07;9.90;;;5.70;;
75246;SDS011;63844;50.042;19.224;2024-03-22T08:10:43;12.00;;;6.00;;
75246;SDS011;63844;50.042;19.224;2024-03-22T08:12:20;11.10;;;5.20;;
75246;SDS011;63844;50.042;19.224;2024-03-22T08:13:57;9.40;;;5.60;;
75246;SDS011;63844;50.042;19.224;2024-03-22T08:15:38;10.20;;;5.30;;
75246;SDS011;63844;50.042;19.224;2024-03-22T08:17:14;14.70;;;5.90;;
75246;SDS011;63844;50.042;19.224;2024-03-22T08:18:51;10.80;;;5.90;;
75246;SDS011;63844;50.042;19.224;2024-03-22T08:20:27;11.20;;;6.10;;
75246;SDS011;63844;50.042;19.224;2024-03-22T08:22:04;11.70;;;5.90;;
75246;SDS011;63844;50.042;19.224;2024-03-22T08:23:40;9.50;;;5.30;;
75246;SDS011;63844;50.042;19.224;2024-03-22T08:25:17;10.30;;;6.10;;
75246;SDS011;63844;50.042;19.224;2024-03-22T08:26:54;12.20;;;5.80;;
75246;SDS011;63844;50.042;19.224;2024-03-22T08:28:30;11.30;;;5.60;;
75246;SDS011;63844;50.042;19.224;2024-03-22T08:30:07;11.30;;;6.40;;
75246;SDS011;63844;50.042;19.224;2024-03-22T08:31:45;12.40;;;6.10;;
75246;SDS011;63844;50.042;19.224;2024-03-22T08:33:22;10.00;;;5.30;;
75246;SDS011;63844;50.042;19.224;2024-03-22T08:34:58;10.80;;;5.70;;
75246;SDS011;63844;50.042;19.224;2024-03-22T08:36:34;9.30;;;5.40;;
75246;SDS011;63844;50.042;19.224;2024-03-22T08:38:11;12.20;;;6.70;;
75246;SDS011;63844;50.042;19.224;2024-03-22T08:39:50;10.60;;;5.70;;
75246;SDS011;63844;50.042;19.224;2024-03-22T08:41:27;11.50;;;6.00;;
75246;SDS011;63844;50.042;19.224;2024-03-22T08:43:03;13.10;;;6.20;;
75246;SDS011;63844;50.042;19.224;2024-03-22T08:44:40;11.80;;;5.90;;
75246;SDS011;63844;50.042;19.224;2024-03-22T08:46:17;11.20;;;5.90;;
75246;SDS011;63844;50.042;19.224;2024-03-22T08:47:53;10.30;;;5.30;;
75246;SDS011;63844;50.042;19.224;2024-03-22T08:49:30;12.70;;;6.40;;
75246;SDS011;63844;50.042;19.224;2024-03-22T08:51:06;11.90;;;6.50;;
75246;SDS011;63844;50.042;19.224;2024-03-22T08:52:42;11.10;;;6.60;;
75246;SDS011;63844;50.042;19.224;2024-03-22T08:54:19;13.60;;;6.60;;
75246;SDS011;63844;50.042;19.224;2024-03-22T08:55:55;10.40;;;5.80;;
75246;SDS011;63844;50.042;19.224;2024-03-22T08:57:32;11.40;;;6.10;;
75246;SDS011;63844;50.042;19.224;2024-03-22T08:59:09;11.10;;;5.90;;
75246;SDS011;63844;50.042;19.224;2024-03-22T09:00:46;10.50;;;5.40;;
75246;SDS011;63844;50.042;19.224;2024-03-22T09:02:22;10.80;;;5.50;;
75246;SDS011;63844;50.042;19.224;2024-03-22T09:03:59;12.60;;;6.60;;
75246;SDS011;63844;50.042;19.224;2024-03-22T09:05:35;11.90;;;6.00;;
75246;SDS011;63844;50.042;19.224;2024-03-22T09:07:12;10.20;;;6.00;;
75246;SDS011;63844;50.042;19.224;2024-03-22T09:08:49;12.60;;;5.90;;
75246;SDS011;63844;50.042;19.224;2024-03-22T09:10:25;13.30;;;6.90;;
75246;SDS011;63844;50.042;19.224;2024-03-22T09:12:02;11.10;;;6.20;;
75246;SDS011;63844;50.042;19.224;2024-03-22T09:13:39;12.80;;;6.90;;
75246;SDS011;63844;50.042;19.224;2024-03-22T09:15:16;10.90;;;6.40;;
75246;SDS011;63844;50.042;19.224;2024-03-22T09:16:52;13.40;;;7.20;;
75246;SDS011;63844;50.042;19.224;2024-03-22T09:18:28;12.10;;;6.80;;
75246;SDS011;63844;50.042;19.224;2024-03-22T09:20:05;12.60;;;7.40;;